Terminal Aerodrome Forecast
Issued by NWS

Home | Current Version | Previous Version | Graphics & Text | Print | Product List | Glossary On
Versions: 1 2 3 4 5 6 7 8 9 10 11 12 13 14 15 16 17 18 19
000
FTUS43 KABR 201738
TAFATY
TAF
KATY 201738Z 2018/2118 33014KT P6SM OVC020
      TEMPO 2020/2022 BKN040
     FM202200 33012KT P6SM BKN040
     FM210800 00000KT 2SM BR FEW130
     FM211500 04004KT P6SM FEW200=

USA.gov is the U.S. government's official web portal to all federal, state and local government web resources and services.